sensor_id;sensor_type;location;lat;lon;timestamp;P1;durP1;ratioP1;P2;durP2;ratioP2
34984;SDS011;21190;58.750;17.004;2023-07-13T00:00:47;3.97;;;2.22;;
34984;SDS011;21190;58.750;17.004;2023-07-13T00:03:14;3.17;;;1.85;;
34984;SDS011;21190;58.750;17.004;2023-07-13T00:05:41;4.82;;;1.85;;
34984;SDS011;21190;58.750;17.004;2023-07-13T00:08:08;5.68;;;1.80;;
34984;SDS011;21190;58.750;17.004;2023-07-13T00:10:41;3.92;;;2.10;;
34984;SDS011;21190;58.750;17.004;2023-07-13T00:13:08;6.80;;;2.53;;
34984;SDS011;21190;58.750;17.004;2023-07-13T00:15:35;6.25;;;3.20;;
34984;SDS011;21190;58.750;17.004;2023-07-13T00:18:02;5.78;;;2.95;;
34984;SDS011;21190;58.750;17.004;2023-07-13T00:20:30;7.55;;;2.67;;
34984;SDS011;21190;58.750;17.004;2023-07-13T00:22:56;3.05;;;1.90;;
34984;SDS011;21190;58.750;17.004;2023-07-13T00:25:24;3.05;;;2.17;;
34984;SDS011;21190;58.750;17.004;2023-07-13T00:27:52;2.22;;;1.90;;
34984;SDS011;21190;58.750;17.004;2023-07-13T00:30:19;6.65;;;2.50;;
34984;SDS011;21190;58.750;17.004;2023-07-13T00:32:46;2.80;;;2.25;;
34984;SDS011;21190;58.750;17.004;2023-07-13T00:35:13;4.65;;;1.80;;
34984;SDS011;21190;58.750;17.004;2023-07-13T00:37:41;2.50;;;2.10;;
34984;SDS011;21190;58.750;17.004;2023-07-13T00:40:09;4.47;;;2.17;;
34984;SDS011;21190;58.750;17.004;2023-07-13T00:42:40;5.45;;;1.80;;
34984;SDS011;21190;58.750;17.004;2023-07-13T00:47:56;5.95;;;2.40;;
34984;SDS011;21190;58.750;17.004;2023-07-13T00:50:24;5.10;;;2.40;;
34984;SDS011;21190;58.750;17.004;2023-07-13T00:52:52;6.25;;;2.50;;
34984;SDS011;21190;58.750;17.004;2023-07-13T00:55:21;5.68;;;2.55;;
34984;SDS011;21190;58.750;17.004;2023-07-13T00:57:49;2.92;;;2.45;;
34984;SDS011;21190;58.750;17.004;2023-07-13T01:00:16;6.07;;;2.65;;
34984;SDS011;21190;58.750;17.004;2023-07-13T01:02:44;7.78;;;4.38;;
34984;SDS011;21190;58.750;17.004;2023-07-13T01:05:16;4.55;;;2.40;;
34984;SDS011;21190;58.750;17.004;2023-07-13T01:07:45;6.30;;;2.75;;
34984;SDS011;21190;58.750;17.004;2023-07-13T01:10:16;6.78;;;2.95;;
34984;SDS011;21190;58.750;17.004;2023-07-13T01:12:52;8.65;;;3.58;;
34984;SDS011;21190;58.750;17.004;2023-07-13T01:20:36;5.97;;;2.83;;
34984;SDS011;21190;58.750;17.004;2023-07-13T01:23:10;6.32;;;2.80;;
34984;SDS011;21190;58.750;17.004;2023-07-13T01:25:39;6.28;;;2.85;;
34984;SDS011;21190;58.750;17.004;2023-07-13T01:28:07;10.93;;;3.28;;
34984;SDS011;21190;58.750;17.004;2023-07-13T01:30:38;11.30;;;3.47;;
34984;SDS011;21190;58.750;17.004;2023-07-13T01:33:07;8.63;;;3.38;;
34984;SDS011;21190;58.750;17.004;2023-07-13T01:35:34;7.10;;;3.33;;
34984;SDS011;21190;58.750;17.004;2023-07-13T01:38:02;6.85;;;2.65;;
34984;SDS011;21190;58.750;17.004;2023-07-13T01:40:31;5.57;;;2.53;;
34984;SDS011;21190;58.750;17.004;2023-07-13T01:42:59;6.43;;;2.90;;
34984;SDS011;21190;58.750;17.004;2023-07-13T01:45:27;7.25;;;2.92;;
34984;SDS011;21190;58.750;17.004;2023-07-13T01:47:54;7.85;;;3.63;;
34984;SDS011;21190;58.750;17.004;2023-07-13T01:50:21;3.70;;;3.05;;
34984;SDS011;21190;58.750;17.004;2023-07-13T01:52:47;10.82;;;3.00;;
34984;SDS011;21190;58.750;17.004;2023-07-13T01:55:14;7.50;;;3.13;;
34984;SDS011;21190;58.750;17.004;2023-07-13T01:57:41;10.05;;;3.20;;
34984;SDS011;21190;58.750;17.004;2023-07-13T02:00:09;8.52;;;3.78;;
34984;SDS011;21190;58.750;17.004;2023-07-13T02:02:37;13.05;;;4.07;;
34984;SDS011;21190;58.750;17.004;2023-07-13T02:05:04;7.28;;;3.33;;
34984;SDS011;21190;58.750;17.004;2023-07-13T02:07:32;8.00;;;3.65;;
34984;SDS011;21190;58.750;17.004;2023-07-13T02:09:59;7.18;;;3.65;;
34984;SDS011;21190;58.750;17.004;2023-07-13T02:12:25;7.80;;;3.30;;
34984;SDS011;21190;58.750;17.004;2023-07-13T02:14:52;10.73;;;3.90;;
34984;SDS011;21190;58.750;17.004;2023-07-13T02:17:19;10.77;;;3.92;;
34984;SDS011;21190;58.750;17.004;2023-07-13T02:19:46;7.68;;;3.60;;
34984;SDS011;21190;58.750;17.004;2023-07-13T02:22:13;7.07;;;3.70;;
34984;SDS011;21190;58.750;17.004;2023-07-13T02:24:40;9.55;;;4.07;;
34984;SDS011;21190;58.750;17.004;2023-07-13T02:27:07;9.90;;;4.28;;
34984;SDS011;21190;58.750;17.004;2023-07-13T02:29:34;6.25;;;4.07;;
34984;SDS011;21190;58.750;17.004;2023-07-13T02:32:01;10.07;;;3.90;;
34984;SDS011;21190;58.750;17.004;2023-07-13T02:34:29;7.38;;;4.50;;
34984;SDS011;21190;58.750;17.004;2023-07-13T02:36:58;9.60;;;4.00;;
34984;SDS011;21190;58.750;17.004;2023-07-13T02:39:25;8.38;;;3.60;;
34984;SDS011;21190;58.750;17.004;2023-07-13T02:41:52;6.68;;;3.70;;
34984;SDS011;21190;58.750;17.004;2023-07-13T02:44:19;7.57;;;3.67;;
34984;SDS011;21190;58.750;17.004;2023-07-13T02:46:46;11.70;;;4.15;;
34984;SDS011;21190;58.750;17.004;2023-07-13T02:49:13;8.45;;;3.83;;
34984;SDS011;21190;58.750;17.004;2023-07-13T02:51:40;6.75;;;3.55;;
34984;SDS011;21190;58.750;17.004;2023-07-13T02:54:07;6.90;;;3.60;;
34984;SDS011;21190;58.750;17.004;2023-07-13T02:56:35;8.88;;;4.30;;
34984;SDS011;21190;58.750;17.004;2023-07-13T02:59:05;7.07;;;4.50;;
34984;SDS011;21190;58.750;17.004;2023-07-13T03:01:32;8.68;;;3.45;;
34984;SDS011;21190;58.750;17.004;2023-07-13T03:04:01;7.88;;;3.90;;
34984;SDS011;21190;58.750;17.004;2023-07-13T03:06:28;9.63;;;3.83;;
34984;SDS011;21190;58.750;17.004;2023-07-13T03:08:57;8.38;;;4.63;;
34984;SDS011;21190;58.750;17.004;2023-07-13T03:11:24;8.93;;;4.15;;
34984;SDS011;21190;58.750;17.004;2023-07-13T03:13:52;7.85;;;4.03;;
34984;SDS011;21190;58.750;17.004;2023-07-13T03:16:19;6.93;;;3.70;;
34984;SDS011;21190;58.750;17.004;2023-07-13T03:18:47;9.20;;;3.58;;
34984;SDS011;21190;58.750;17.004;2023-07-13T03:21:14;9.43;;;3.80;;
34984;SDS011;21190;58.750;17.004;2023-07-13T03:23:42;9.90;;;3.95;;
34984;SDS011;21190;58.750;17.004;2023-07-13T03:26:13;7.00;;;4.10;;
34984;SDS011;21190;58.750;17.004;2023-07-13T03:28:45;6.35;;;4.25;;
34984;SDS011;21190;58.750;17.004;2023-07-13T03:31:14;6.10;;;4.28;;
34984;SDS011;21190;58.750;17.004;2023-07-13T03:33:43;23.10;;;4.85;;
34984;SDS011;21190;58.750;17.004;2023-07-13T03:36:16;9.05;;;4.07;;
34984;SDS011;21190;58.750;17.004;2023-07-13T03:38:46;8.35;;;3.90;;
34984;SDS011;21190;58.750;17.004;2023-07-13T03:41:15;13.20;;;4.13;;
34984;SDS011;21190;58.750;17.004;2023-07-13T03:43:42;15.48;;;4.43;;
34984;SDS011;21190;58.750;17.004;2023-07-13T03:46:10;9.50;;;3.90;;
34984;SDS011;21190;58.750;17.004;2023-07-13T03:48:37;12.30;;;3.90;;
34984;SDS011;21190;58.750;17.004;2023-07-13T03:51:06;8.40;;;3.90;;
34984;SDS011;21190;58.750;17.004;2023-07-13T03:53:34;10.50;;;4.15;;
34984;SDS011;21190;58.750;17.004;2023-07-13T03:56:05;8.88;;;4.28;;
34984;SDS011;21190;58.750;17.004;2023-07-13T03:58:33;8.55;;;4.60;;
34984;SDS011;21190;58.750;17.004;2023-07-13T04:01:00;14.07;;;4.68;;
34984;SDS011;21190;58.750;17.004;2023-07-13T04:03:29;6.18;;;4.30;;
34984;SDS011;21190;58.750;17.004;2023-07-13T04:05:59;6.75;;;4.35;;
34984;SDS011;21190;58.750;17.004;2023-07-13T04:08:27;9.15;;;4.50;;
34984;SDS011;21190;58.750;17.004;2023-07-13T04:10:55;8.70;;;3.85;;
34984;SDS011;21190;58.750;17.004;2023-07-13T04:13:23;9.57;;;4.75;;
34984;SDS011;21190;58.750;17.004;2023-07-13T04:15:51;15.48;;;4.93;;
34984;SDS011;21190;58.750;17.004;2023-07-13T04:18:19;10.30;;;4.93;;
34984;SDS011;21190;58.750;17.004;2023-07-13T04:20:47;9.43;;;4.20;;
34984;SDS011;21190;58.750;17.004;2023-07-13T04:23:14;8.95;;;4.00;;
34984;SDS011;21190;58.750;17.004;2023-07-13T04:25:45;13.20;;;4.90;;
34984;SDS011;21190;58.750;17.004;2023-07-13T04:28:15;6.85;;;4.18;;
34984;SDS011;21190;58.750;17.004;2023-07-13T04:30:44;8.55;;;4.15;;
34984;SDS011;21190;58.750;17.004;2023-07-13T04:33:11;7.85;;;4.00;;
34984;SDS011;21190;58.750;17.004;2023-07-13T04:35:38;7.90;;;3.85;;
34984;SDS011;21190;58.750;17.004;2023-07-13T04:38:05;6.72;;;4.45;;
34984;SDS011;21190;58.750;17.004;2023-07-13T04:40:32;6.97;;;3.97;;
34984;SDS011;21190;58.750;17.004;2023-07-13T04:42:59;6.38;;;4.13;;
34984;SDS011;21190;58.750;17.004;2023-07-13T04:45:26;11.77;;;4.13;;
34984;SDS011;21190;58.750;17.004;2023-07-13T04:47:53;7.90;;;3.95;;
34984;SDS011;21190;58.750;17.004;2023-07-13T04:50:20;10.98;;;4.30;;
34984;SDS011;21190;58.750;17.004;2023-07-13T04:52:52;7.80;;;4.60;;
34984;SDS011;21190;58.750;17.004;2023-07-13T04:55:19;9.10;;;4.47;;
34984;SDS011;21190;58.750;17.004;2023-07-13T04:57:47;9.95;;;4.45;;
34984;SDS011;21190;58.750;17.004;2023-07-13T05:00:14;9.13;;;4.20;;
34984;SDS011;21190;58.750;17.004;2023-07-13T05:02:43;11.85;;;4.00;;
34984;SDS011;21190;58.750;17.004;2023-07-13T05:05:12;6.57;;;4.20;;
34984;SDS011;21190;58.750;17.004;2023-07-13T05:07:39;11.27;;;3.75;;
34984;SDS011;21190;58.750;17.004;2023-07-13T05:10:07;7.47;;;3.90;;
34984;SDS011;21190;58.750;17.004;2023-07-13T05:12:34;12.15;;;4.32;;
34984;SDS011;21190;58.750;17.004;2023-07-13T05:15:01;9.63;;;3.85;;
34984;SDS011;21190;58.750;17.004;2023-07-13T05:17:29;9.30;;;4.03;;
34984;SDS011;21190;58.750;17.004;2023-07-13T05:19:56;9.07;;;4.25;;
34984;SDS011;21190;58.750;17.004;2023-07-13T05:22:23;12.65;;;4.15;;
34984;SDS011;21190;58.750;17.004;2023-07-13T05:24:50;8.40;;;3.97;;
34984;SDS011;21190;58.750;17.004;2023-07-13T05:27:17;9.32;;;4.28;;
34984;SDS011;21190;58.750;17.004;2023-07-13T05:29:44;11.65;;;3.97;;
34984;SDS011;21190;58.750;17.004;2023-07-13T05:32:10;8.18;;;4.00;;
34984;SDS011;21190;58.750;17.004;2023-07-13T05:34:37;8.07;;;3.83;;
34984;SDS011;21190;58.750;17.004;2023-07-13T05:37:04;14.02;;;4.15;;
34984;SDS011;21190;58.750;17.004;2023-07-13T05:39:31;7.15;;;3.70;;
34984;SDS011;21190;58.750;17.004;2023-07-13T05:41:58;9.68;;;3.97;;
34984;SDS011;21190;58.750;17.004;2023-07-13T05:44:25;7.97;;;3.78;;
34984;SDS011;21190;58.750;17.004;2023-07-13T05:46:52;8.30;;;3.30;;
34984;SDS011;21190;58.750;17.004;2023-07-13T05:49:19;5.65;;;3.33;;
34984;SDS011;21190;58.750;17.004;2023-07-13T05:51:46;7.80;;;3.58;;
34984;SDS011;21190;58.750;17.004;2023-07-13T05:54:13;5.60;;;3.20;;
34984;SDS011;21190;58.750;17.004;2023-07-13T05:56:40;8.48;;;3.75;;
34984;SDS011;21190;58.750;17.004;2023-07-13T05:59:07;9.15;;;3.65;;
34984;SDS011;21190;58.750;17.004;2023-07-13T06:01:34;11.18;;;3.42;;
34984;SDS011;21190;58.750;17.004;2023-07-13T06:04:01;6.50;;;3.13;;
34984;SDS011;21190;58.750;17.004;2023-07-13T06:06:28;6.90;;;2.65;;
34984;SDS011;21190;58.750;17.004;2023-07-13T06:08:55;7.75;;;3.42;;
34984;SDS011;21190;58.750;17.004;2023-07-13T06:11:23;6.85;;;3.08;;
34984;SDS011;21190;58.750;17.004;2023-07-13T06:13:51;8.43;;;3.17;;
34984;SDS011;21190;58.750;17.004;2023-07-13T06:16:18;8.23;;;3.28;;
34984;SDS011;21190;58.750;17.004;2023-07-13T06:18:45;7.85;;;2.78;;
34984;SDS011;21190;58.750;17.004;2023-07-13T06:21:14;7.35;;;2.58;;
34984;SDS011;21190;58.750;17.004;2023-07-13T06:23:43;8.18;;;2.88;;
34984;SDS011;21190;58.750;17.004;2023-07-13T06:26:11;6.57;;;3.03;;
34984;SDS011;21190;58.750;17.004;2023-07-13T06:28:38;6.40;;;2.40;;
34984;SDS011;21190;58.750;17.004;2023-07-13T06:31:07;9.38;;;3.17;;
34984;SDS011;21190;58.750;17.004;2023-07-13T06:33:36;5.82;;;2.67;;
34984;SDS011;21190;58.750;17.004;2023-07-13T06:36:04;11.30;;;3.08;;
34984;SDS011;21190;58.750;17.004;2023-07-13T06:38:32;14.48;;;3.03;;
34984;SDS011;21190;58.750;17.004;2023-07-13T06:40:59;6.35;;;2.40;;
34984;SDS011;21190;58.750;17.004;2023-07-13T06:43:26;6.10;;;2.50;;
34984;SDS011;21190;58.750;17.004;2023-07-13T06:45:54;8.50;;;2.80;;
34984;SDS011;21190;58.750;17.004;2023-07-13T06:48:22;10.23;;;3.05;;
34984;SDS011;21190;58.750;17.004;2023-07-13T06:50:49;9.02;;;2.97;;
34984;SDS011;21190;58.750;17.004;2023-07-13T06:53:17;7.50;;;2.47;;
34984;SDS011;21190;58.750;17.004;2023-07-13T06:55:45;7.18;;;2.50;;
34984;SDS011;21190;58.750;17.004;2023-07-13T06:58:17;10.23;;;2.78;;
34984;SDS011;21190;58.750;17.004;2023-07-13T07:00:45;4.47;;;1.85;;
34984;SDS011;21190;58.750;17.004;2023-07-13T07:03:13;6.60;;;2.38;;
34984;SDS011;21190;58.750;17.004;2023-07-13T07:05:40;6.45;;;2.40;;
34984;SDS011;21190;58.750;17.004;2023-07-13T07:08:07;7.45;;;2.53;;
34984;SDS011;21190;58.750;17.004;2023-07-13T07:10:34;6.20;;;2.58;;
34984;SDS011;21190;58.750;17.004;2023-07-13T07:13:01;5.07;;;2.78;;
34984;SDS011;21190;58.750;17.004;2023-07-13T07:15:29;5.32;;;2.08;;
34984;SDS011;21190;58.750;17.004;2023-07-13T07:17:56;5.50;;;2.28;;
34984;SDS011;21190;58.750;17.004;2023-07-13T07:20:23;9.25;;;2.80;;
34984;SDS011;21190;58.750;17.004;2023-07-13T07:22:50;5.97;;;1.92;;
34984;SDS011;21190;58.750;17.004;2023-07-13T07:25:18;5.22;;;2.38;;
34984;SDS011;21190;58.750;17.004;2023-07-13T07:27:45;6.38;;;2.30;;
34984;SDS011;21190;58.750;17.004;2023-07-13T07:30:15;7.75;;;2.85;;
34984;SDS011;21190;58.750;17.004;2023-07-13T07:32:45;9.35;;;2.35;;
34984;SDS011;21190;58.750;17.004;2023-07-13T07:35:14;8.40;;;2.72;;
34984;SDS011;21190;58.750;17.004;2023-07-13T07:37:41;4.68;;;2.60;;
34984;SDS011;21190;58.750;17.004;2023-07-13T07:40:11;10.73;;;3.35;;
34984;SDS011;21190;58.750;17.004;2023-07-13T07:42:41;11.02;;;2.60;;
34984;SDS011;21190;58.750;17.004;2023-07-13T07:45:08;7.15;;;2.30;;
34984;SDS011;21190;58.750;17.004;2023-07-13T07:47:37;6.78;;;2.40;;
34984;SDS011;21190;58.750;17.004;2023-07-13T07:50:05;4.93;;;2.13;;
34984;SDS011;21190;58.750;17.004;2023-07-13T07:52:32;4.13;;;2.00;;
34984;SDS011;21190;58.750;17.004;2023-07-13T07:54:59;6.88;;;1.83;;
34984;SDS011;21190;58.750;17.004;2023-07-13T07:57:29;9.10;;;1.92;;
34984;SDS011;21190;58.750;17.004;2023-07-13T07:59:59;4.55;;;1.90;;
34984;SDS011;21190;58.750;17.004;2023-07-13T08:02:29;6.60;;;2.13;;
34984;SDS011;21190;58.750;17.004;2023-07-13T08:04:58;5.10;;;1.80;;
34984;SDS011;21190;58.750;17.004;2023-07-13T08:07:30;5.80;;;1.70;;
34984;SDS011;21190;58.750;17.004;2023-07-13T08:09:57;2.95;;;1.40;;
34984;SDS011;21190;58.750;17.004;2023-07-13T08:12:24;5.60;;;1.65;;
34984;SDS011;21190;58.750;17.004;2023-07-13T08:14:54;3.28;;;1.45;;
34984;SDS011;21190;58.750;17.004;2023-07-13T08:17:24;5.88;;;1.98;;
34984;SDS011;21190;58.750;17.004;2023-07-13T08:19:51;6.78;;;1.98;;
34984;SDS011;21190;58.750;17.004;2023-07-13T08:22:18;6.43;;;1.50;;
34984;SDS011;21190;58.750;17.004;2023-07-13T08:24:45;6.07;;;1.92;;
34984;SDS011;21190;58.750;17.004;2023-07-13T08:27:13;4.30;;;1.83;;
34984;SDS011;21190;58.750;17.004;2023-07-13T08:29:40;7.97;;;2.00;;
34984;SDS011;21190;58.750;17.004;2023-07-13T08:32:07;5.35;;;1.83;;
34984;SDS011;21190;58.750;17.004;2023-07-13T08:34:38;5.32;;;1.58;;
34984;SDS011;21190;58.750;17.004;2023-07-13T08:37:05;3.50;;;1.50;;
34984;SDS011;21190;58.750;17.004;2023-07-13T08:39:32;3.35;;;1.30;;
34984;SDS011;21190;58.750;17.004;2023-07-13T08:42:11;4.53;;;1.65;;
34984;SDS011;21190;58.750;17.004;2023-07-13T08:44:52;7.88;;;1.67;;
34984;SDS011;21190;58.750;17.004;2023-07-13T08:47:39;3.75;;;1.70;;
34984;SDS011;21190;58.750;17.004;2023-07-13T08:50:12;3.88;;;1.25;;
34984;SDS011;21190;58.750;17.004;2023-07-13T08:52:43;6.18;;;1.45;;
34984;SDS011;21190;58.750;17.004;2023-07-13T08:55:18;5.25;;;1.50;;
34984;SDS011;21190;58.750;17.004;2023-07-13T08:57:53;4.82;;;1.45;;
34984;SDS011;21190;58.750;17.004;2023-07-13T09:00:28;3.60;;;1.20;;
34984;SDS011;21190;58.750;17.004;2023-07-13T09:03:28;4.47;;;1.45;;
34984;SDS011;21190;58.750;17.004;2023-07-13T09:06:02;6.18;;;1.77;;
34984;SDS011;21190;58.750;17.004;2023-07-13T09:16:50;6.53;;;1.30;;
34984;SDS011;21190;58.750;17.004;2023-07-13T09:19:20;3.63;;;1.25;;
34984;SDS011;21190;58.750;17.004;2023-07-13T09:21:52;6.50;;;1.70;;
34984;SDS011;21190;58.750;17.004;2023-07-13T09:27:12;3.63;;;1.17;;
34984;SDS011;21190;58.750;17.004;2023-07-13T09:29:48;5.07;;;1.35;;
34984;SDS011;21190;58.750;17.004;2023-07-13T09:32:21;6.45;;;1.27;;
34984;SDS011;21190;58.750;17.004;2023-07-13T09:34:51;5.45;;;1.45;;
34984;SDS011;21190;58.750;17.004;2023-07-13T09:37:22;6.03;;;1.08;;
34984;SDS011;21190;58.750;17.004;2023-07-13T09:39:54;3.35;;;1.08;;
34984;SDS011;21190;58.750;17.004;2023-07-13T09:42:23;2.53;;;1.10;;
34984;SDS011;21190;58.750;17.004;2023-07-13T09:44:53;5.75;;;1.20;;
34984;SDS011;21190;58.750;17.004;2023-07-13T09:47:26;4.40;;;1.50;;
34984;SDS011;21190;58.750;17.004;2023-07-13T09:50:01;2.65;;;1.40;;
34984;SDS011;21190;58.750;17.004;2023-07-13T09:52:50;4.80;;;1.42;;
34984;SDS011;21190;58.750;17.004;2023-07-13T09:57:52;5.15;;;1.40;;
34984;SDS011;21190;58.750;17.004;2023-07-13T10:00:25;2.83;;;1.42;;
34984;SDS011;21190;58.750;17.004;2023-07-13T10:03:04;2.55;;;1.27;;
34984;SDS011;21190;58.750;17.004;2023-07-13T10:05:44;2.33;;;1.20;;
34984;SDS011;21190;58.750;17.004;2023-07-13T10:11:00;3.97;;;1.65;;
34984;SDS011;21190;58.750;17.004;2023-07-13T10:13:37;4.90;;;1.50;;
34984;SDS011;21190;58.750;17.004;2023-07-13T10:16:31;2.25;;;1.00;;
34984;SDS011;21190;58.750;17.004;2023-07-13T10:19:05;2.55;;;1.00;;
34984;SDS011;21190;58.750;17.004;2023-07-13T10:21:49;3.83;;;1.10;;
34984;SDS011;21190;58.750;17.004;2023-07-13T10:24:25;5.78;;;1.38;;
34984;SDS011;21190;58.750;17.004;2023-07-13T10:27:05;8.82;;;1.35;;
34984;SDS011;21190;58.750;17.004;2023-07-13T10:29:53;2.72;;;1.30;;
34984;SDS011;21190;58.750;17.004;2023-07-13T10:32:42;6.05;;;1.48;;
34984;SDS011;21190;58.750;17.004;2023-07-13T10:35:13;7.15;;;1.55;;
34984;SDS011;21190;58.750;17.004;2023-07-13T10:37:43;2.97;;;1.35;;
34984;SDS011;21190;58.750;17.004;2023-07-13T10:40:18;5.57;;;1.20;;
34984;SDS011;21190;58.750;17.004;2023-07-13T10:42:54;4.43;;;1.33;;
34984;SDS011;21190;58.750;17.004;2023-07-13T10:45:24;5.35;;;1.45;;
34984;SDS011;21190;58.750;17.004;2023-07-13T10:47:54;4.55;;;1.20;;
34984;SDS011;21190;58.750;17.004;2023-07-13T10:50:23;3.85;;;1.27;;
34984;SDS011;21190;58.750;17.004;2023-07-13T10:52:53;5.60;;;1.40;;
34984;SDS011;21190;58.750;17.004;2023-07-13T10:55:37;3.33;;;1.30;;
34984;SDS011;21190;58.750;17.004;2023-07-13T10:58:21;1.77;;;1.27;;
34984;SDS011;21190;58.750;17.004;2023-07-13T11:01:02;7.28;;;1.50;;
34984;SDS011;21190;58.750;17.004;2023-07-13T11:12:25;5.40;;;1.20;;
34984;SDS011;21190;58.750;17.004;2023-07-13T11:15:13;3.72;;;1.52;;
34984;SDS011;21190;58.750;17.004;2023-07-13T11:17:48;9.23;;;1.67;;
34984;SDS011;21190;58.750;17.004;2023-07-13T11:22:48;4.20;;;1.50;;
34984;SDS011;21190;58.750;17.004;2023-07-13T11:27:51;5.18;;;1.00;;
34984;SDS011;21190;58.750;17.004;2023-07-13T11:30:37;11.35;;;1.15;;
34984;SDS011;21190;58.750;17.004;2023-07-13T11:33:17;3.80;;;1.10;;
34984;SDS011;21190;58.750;17.004;2023-07-13T11:38:20;2.00;;;1.10;;
34984;SDS011;21190;58.750;17.004;2023-07-13T11:43:42;3.72;;;0.90;;
34984;SDS011;21190;58.750;17.004;2023-07-13T11:46:14;3.90;;;1.30;;
34984;SDS011;21190;58.750;17.004;2023-07-13T11:48:42;3.40;;;1.30;;
34984;SDS011;21190;58.750;17.004;2023-07-13T11:51:14;5.97;;;1.33;;
34984;SDS011;21190;58.750;17.004;2023-07-13T11:53:53;6.38;;;1.30;;
34984;SDS011;21190;58.750;17.004;2023-07-13T11:56:23;3.15;;;1.02;;
34984;SDS011;21190;58.750;17.004;2023-07-13T11:58:52;2.08;;;1.42;;
34984;SDS011;21190;58.750;17.004;2023-07-13T12:01:26;3.22;;;0.80;;
34984;SDS011;21190;58.750;17.004;2023-07-13T12:04:03;4.70;;;0.88;;
34984;SDS011;21190;58.750;17.004;2023-07-13T12:06:33;3.55;;;1.13;;
34984;SDS011;21190;58.750;17.004;2023-07-13T12:09:11;3.30;;;0.77;;
34984;SDS011;21190;58.750;17.004;2023-07-13T12:11:43;6.75;;;1.45;;
34984;SDS011;21190;58.750;17.004;2023-07-13T12:14:13;3.75;;;0.90;;
34984;SDS011;21190;58.750;17.004;2023-07-13T12:16:42;3.20;;;1.10;;
34984;SDS011;21190;58.750;17.004;2023-07-13T12:19:26;3.78;;;1.08;;
34984;SDS011;21190;58.750;17.004;2023-07-13T12:21:55;1.67;;;0.95;;
34984;SDS011;21190;58.750;17.004;2023-07-13T12:24:24;3.03;;;1.10;;
34984;SDS011;21190;58.750;17.004;2023-07-13T12:26:53;5.07;;;1.38;;
34984;SDS011;21190;58.750;17.004;2023-07-13T12:29:31;1.38;;;0.73;;
34984;SDS011;21190;58.750;17.004;2023-07-13T12:31:59;4.57;;;1.23;;
34984;SDS011;21190;58.750;17.004;2023-07-13T12:34:26;2.17;;;0.80;;
34984;SDS011;21190;58.750;17.004;2023-07-13T12:36:58;3.80;;;1.10;;
34984;SDS011;21190;58.750;17.004;2023-07-13T12:47:29;4.60;;;1.25;;
34984;SDS011;21190;58.750;17.004;2023-07-13T12:49:58;2.63;;;0.88;;
34984;SDS011;21190;58.750;17.004;2023-07-13T12:52:29;3.55;;;0.75;;
34984;SDS011;21190;58.750;17.004;2023-07-13T12:55:04;1.90;;;1.00;;
34984;SDS011;21190;58.750;17.004;2023-07-13T12:57:41;6.13;;;1.30;;
34984;SDS011;21190;58.750;17.004;2023-07-13T13:00:32;2.55;;;0.93;;
34984;SDS011;21190;58.750;17.004;2023-07-13T13:08:30;2.63;;;0.80;;
34984;SDS011;21190;58.750;17.004;2023-07-13T13:10:57;1.50;;;0.65;;
34984;SDS011;21190;58.750;17.004;2023-07-13T13:13:24;1.80;;;1.05;;
34984;SDS011;21190;58.750;17.004;2023-07-13T13:15:51;6.38;;;1.33;;
34984;SDS011;21190;58.750;17.004;2023-07-13T13:18:20;7.68;;;1.13;;
34984;SDS011;21190;58.750;17.004;2023-07-13T13:20:49;1.80;;;1.17;;
34984;SDS011;21190;58.750;17.004;2023-07-13T13:23:18;5.55;;;2.25;;
34984;SDS011;21190;58.750;17.004;2023-07-13T13:25:47;5.60;;;1.45;;
34984;SDS011;21190;58.750;17.004;2023-07-13T13:28:18;3.85;;;1.08;;
34984;SDS011;21190;58.750;17.004;2023-07-13T13:30:47;2.88;;;1.00;;
34984;SDS011;21190;58.750;17.004;2023-07-13T13:33:17;3.00;;;1.20;;
34984;SDS011;21190;58.750;17.004;2023-07-13T13:35:45;2.00;;;0.90;;
34984;SDS011;21190;58.750;17.004;2023-07-13T13:38:16;3.30;;;1.10;;
34984;SDS011;21190;58.750;17.004;2023-07-13T13:40:45;4.25;;;1.00;;
34984;SDS011;21190;58.750;17.004;2023-07-13T13:45:44;2.92;;;1.08;;
34984;SDS011;21190;58.750;17.004;2023-07-13T13:48:19;5.90;;;1.02;;
34984;SDS011;21190;58.750;17.004;2023-07-13T13:50:56;6.75;;;1.08;;
34984;SDS011;21190;58.750;17.004;2023-07-13T13:53:24;5.78;;;1.17;;
34984;SDS011;21190;58.750;17.004;2023-07-13T13:55:51;4.38;;;1.30;;
34984;SDS011;21190;58.750;17.004;2023-07-13T13:58:19;2.08;;;0.85;;
34984;SDS011;21190;58.750;17.004;2023-07-13T14:00:47;3.38;;;1.08;;
34984;SDS011;21190;58.750;17.004;2023-07-13T14:03:15;3.30;;;1.15;;
34984;SDS011;21190;58.750;17.004;2023-07-13T14:05:44;5.22;;;1.30;;
34984;SDS011;21190;58.750;17.004;2023-07-13T14:08:16;2.75;;;1.08;;
34984;SDS011;21190;58.750;17.004;2023-07-13T14:10:51;2.65;;;1.02;;
34984;SDS011;21190;58.750;17.004;2023-07-13T14:13:21;3.03;;;1.23;;
34984;SDS011;21190;58.750;17.004;2023-07-13T14:15:53;3.22;;;1.00;;
34984;SDS011;21190;58.750;17.004;2023-07-13T14:18:20;4.95;;;1.20;;
34984;SDS011;21190;58.750;17.004;2023-07-13T14:20:48;5.60;;;1.60;;
34984;SDS011;21190;58.750;17.004;2023-07-13T14:23:15;8.75;;;1.23;;
34984;SDS011;21190;58.750;17.004;2023-07-13T14:25:47;2.95;;;1.27;;
34984;SDS011;21190;58.750;17.004;2023-07-13T14:30:49;2.65;;;1.10;;
34984;SDS011;21190;58.750;17.004;2023-07-13T14:33:16;3.22;;;1.00;;
34984;SDS011;21190;58.750;17.004;2023-07-13T14:35:43;3.22;;;1.05;;
34984;SDS011;21190;58.750;17.004;2023-07-13T14:38:15;5.40;;;1.85;;
34984;SDS011;21190;58.750;17.004;2023-07-13T14:40:44;6.10;;;1.73;;
34984;SDS011;21190;58.750;17.004;2023-07-13T14:43:12;3.45;;;1.00;;
34984;SDS011;21190;58.750;17.004;2023-07-13T14:45:41;10.80;;;1.48;;
34984;SDS011;21190;58.750;17.004;2023-07-13T14:48:16;2.25;;;1.10;;
34984;SDS011;21190;58.750;17.004;2023-07-13T14:50:43;3.10;;;1.20;;
34984;SDS011;21190;58.750;17.004;2023-07-13T14:53:11;3.00;;;1.10;;
34984;SDS011;21190;58.750;17.004;2023-07-13T14:55:38;4.25;;;1.08;;
34984;SDS011;21190;58.750;17.004;2023-07-13T14:58:06;2.17;;;0.90;;
34984;SDS011;21190;58.750;17.004;2023-07-13T15:00:33;3.08;;;1.10;;
34984;SDS011;21190;58.750;17.004;2023-07-13T15:03:00;3.47;;;1.08;;
34984;SDS011;21190;58.750;17.004;2023-07-13T15:05:29;3.95;;;1.30;;
34984;SDS011;21190;58.750;17.004;2023-07-13T15:07:58;1.70;;;0.80;;
34984;SDS011;21190;58.750;17.004;2023-07-13T15:10:31;2.55;;;0.93;;
34984;SDS011;21190;58.750;17.004;2023-07-13T15:13:15;2.13;;;1.00;;
34984;SDS011;21190;58.750;17.004;2023-07-13T15:15:48;5.03;;;1.33;;
34984;SDS011;21190;58.750;17.004;2023-07-13T15:18:18;7.57;;;1.20;;
34984;SDS011;21190;58.750;17.004;2023-07-13T15:20:48;8.95;;;1.70;;
34984;SDS011;21190;58.750;17.004;2023-07-13T15:23:16;8.57;;;1.90;;
34984;SDS011;21190;58.750;17.004;2023-07-13T15:25:44;5.53;;;1.85;;
34984;SDS011;21190;58.750;17.004;2023-07-13T15:28:12;3.08;;;1.33;;
34984;SDS011;21190;58.750;17.004;2023-07-13T15:30:44;6.85;;;1.80;;
34984;SDS011;21190;58.750;17.004;2023-07-13T15:33:23;6.28;;;1.70;;
34984;SDS011;21190;58.750;17.004;2023-07-13T15:35:53;4.82;;;1.38;;
34984;SDS011;21190;58.750;17.004;2023-07-13T15:38:23;3.72;;;1.45;;
34984;SDS011;21190;58.750;17.004;2023-07-13T15:40:52;7.40;;;1.40;;
34984;SDS011;21190;58.750;17.004;2023-07-13T15:43:20;2.10;;;1.40;;
34984;SDS011;21190;58.750;17.004;2023-07-13T15:45:47;4.00;;;1.15;;
34984;SDS011;21190;58.750;17.004;2023-07-13T15:48:18;1.30;;;1.00;;
34984;SDS011;21190;58.750;17.004;2023-07-13T15:50:48;2.75;;;1.30;;